Time;durP1;ratioP1;P1;durP2;ratioP2;P2;SDS_P1;SDS_P2;PMS_P1;PMS_P2;Temp;Humidity;BMP_temperature;BMP_pressure;BME280_temperature;BME280_humidity;BME280_pressure;Samples;Min_cycle;Max_cycle;Signal;HPM_P1;HPM_P2
2022/09/29 00:01:20;;;;;;;18.55;6.78;;;;;;;;;;7388933;19;20058;-72
2022/09/29 00:03:45;;;;;;;13.23;6.15;;;;;;;;;;7391559;19;20008;-71
2022/09/29 00:06:16;;;;;;;11.45;4.25;;;;;;;;;;7391130;19;20298;-72
2022/09/29 00:08:42;;;;;;;10.65;3.90;;;;;;;;;;7387499;19;20345;-73
2022/09/29 00:11:10;;;;;;;9.23;4.00;;;;;;;;;;7387980;19;20459;-72
2022/09/29 00:13:35;;;;;;;6.20;3.60;;;;;;;;;;7390558;19;19994;-72
2022/09/29 00:16:02;;;;;;;10.38;4.00;;;;;;;;;;7390239;19;20011;-72
2022/09/29 00:18:29;;;;;;;6.63;3.35;;;;;;;;;;7389476;19;20019;-70
2022/09/29 00:20:59;;;;;;;7.47;4.03;;;;;;;;;;7389884;19;20066;-72
2022/09/29 00:23:26;;;;;;;10.00;4.07;;;;;;;;;;7388761;19;19995;-72
2022/09/29 00:26:03;;;;;;;11.55;4.35;;;;;;;;;;7390696;19;19994;-71
2022/09/29 00:28:29;;;;;;;9.88;5.18;;;;;;;;;;7388933;19;20021;-72
2022/09/29 00:30:54;;;;;;;10.35;4.60;;;;;;;;;;7389792;19;20464;-72
2022/09/29 00:33:19;;;;;;;10.68;3.88;;;;;;;;;;7389101;19;19998;-72
2022/09/29 00:35:55;;;;;;;7.65;3.50;;;;;;;;;;7390191;19;19999;-72
2022/09/29 00:38:20;;;;;;;6.38;3.53;;;;;;;;;;7389707;19;20348;-72
2022/09/29 00:40:46;;;;;;;4.78;2.80;;;;;;;;;;7390142;19;19995;-71
2022/09/29 00:43:20;;;;;;;6.38;2.90;;;;;;;;;;7390253;19;19998;-71
2022/09/29 00:45:46;;;;;;;5.25;2.67;;;;;;;;;;7390475;19;20365;-72
2022/09/29 00:48:16;;;;;;;7.68;3.30;;;;;;;;;;7388970;19;19999;-71
2022/09/29 00:50:52;;;;;;;14.73;3.40;;;;;;;;;;7389846;19;20006;-72
2022/09/29 00:53:19;;;;;;;5.22;3.08;;;;;;;;;;7389466;19;19999;-71
2022/09/29 00:56:00;;;;;;;4.95;2.90;;;;;;;;;;7391380;19;19995;-72
2022/09/29 00:58:36;;;;;;;9.00;3.23;;;;;;;;;;7390622;19;20016;-72
2022/09/29 01:01:03;;;;;;;6.90;3.28;;;;;;;;;;7387801;19;20365;-71
2022/09/29 01:03:34;;;;;;;5.63;3.00;;;;;;;;;;7389645;19;20298;-71
2022/09/29 01:06:26;;;;;;;;;;;;;;;;;;7388783;19;19995;-72
2022/09/29 01:09:01;;;;;;;6.50;2.85;;;;;;;;;;7383437;19;19921;-72
2022/09/29 01:11:28;;;;;;;6.25;3.03;;;;;;;;;;7384699;19;20002;-71
2022/09/29 01:13:56;;;;;;;8.25;3.30;;;;;;;;;;7385268;19;19999;-72
2022/09/29 01:16:21;;;;;;;6.28;3.38;;;;;;;;;;7385533;19;20303;-71
2022/09/29 01:18:46;;;;;;;6.60;3.10;;;;;;;;;;7384322;19;20009;-71
2022/09/29 01:21:35;;;;;;;7.00;2.95;;;;;;;;;;7387129;19;20471;-72
2022/09/29 01:24:27;;;;;;;6.90;3.20;;;;;;;;;;7389021;19;20062;-72
2022/09/29 01:27:11;;;;;;;6.03;3.20;;;;;;;;;;7389439;19;19998;-72
2022/09/29 01:30:00;;;;;;;5.20;2.88;;;;;;;;;;7387321;19;19991;-72
2022/09/29 01:32:31;;;;;;;9.18;2.97;;;;;;;;;;7387237;19;20003;-72
2022/09/29 01:35:14;;;;;;;6.00;3.25;;;;;;;;;;7388677;19;19999;-72
2022/09/29 01:38:05;;;;;;;7.75;2.85;;;;;;;;;;7388414;19;19998;-73
2022/09/29 01:40:41;;;;;;;7.72;3.38;;;;;;;;;;7386905;19;20066;-71
2022/09/29 01:43:28;;;;;;;6.10;3.30;;;;;;;;;;7386071;19;19999;-73
2022/09/29 01:46:05;;;;;;;6.18;3.50;;;;;;;;;;7388812;19;19994;-72
2022/09/29 01:48:39;;;;;;;7.93;3.22;;;;;;;;;;7388112;19;19998;-72
2022/09/29 01:51:10;;;;;;;9.82;3.33;;;;;;;;;;7387936;19;20032;-71
2022/09/29 01:53:44;;;;;;;6.20;3.37;;;;;;;;;;7388901;19;20009;-73
2022/09/29 01:56:20;;;;;;;7.00;3.45;;;;;;;;;;7388192;19;20231;-72
2022/09/29 01:59:11;;;;;;;7.15;3.30;;;;;;;;;;7385692;19;19999;-72
2022/09/29 02:01:39;;;;;;;;;;;;;;;;;;7388110;19;20023;-71
2022/09/29 02:04:12;;;;;;;11.10;3.80;;;;;;;;;;7389370;19;19925;-71
2022/09/29 02:06:46;;;;;;;11.25;3.60;;;;;;;;;;7387463;19;19995;-71
2022/09/29 02:09:20;;;;;;;8.82;3.65;;;;;;;;;;7386359;19;20034;-72
2022/09/29 02:11:51;;;;;;;6.70;3.45;;;;;;;;;;7385087;19;20003;-72
2022/09/29 02:14:29;;;;;;;8.50;3.53;;;;;;;;;;7387176;19;19999;-72
2022/09/29 02:17:06;;;;;;;7.07;3.90;;;;;;;;;;7387311;19;20003;-72
2022/09/29 02:19:36;;;;;;;9.40;4.10;;;;;;;;;;7383835;19;19999;-73
2022/09/29 02:22:01;;;;;;;9.93;3.67;;;;;;;;;;7386606;19;20003;-73
2022/09/29 02:24:27;;;;;;;7.20;3.55;;;;;;;;;;7384886;19;20505;-71
2022/09/29 02:26:53;;;;;;;8.95;3.78;;;;;;;;;;7386935;19;20023;-71
2022/09/29 02:29:19;;;;;;;8.65;3.38;;;;;;;;;;7385252;19;20035;-71
2022/09/29 02:31:46;;;;;;;9.13;3.63;;;;;;;;;;7386876;19;19994;-71
2022/09/29 02:34:17;;;;;;;7.65;3.60;;;;;;;;;;7390933;19;19998;-72
2022/09/29 02:37:03;;;;;;;6.97;3.67;;;;;;;;;;7384340;19;20705;-71
2022/09/29 02:39:40;;;;;;;7.72;4.00;;;;;;;;;;7385311;19;20002;-71
2022/09/29 02:42:20;;;;;;;7.80;4.25;;;;;;;;;;7384527;19;20455;-72
2022/09/29 02:45:08;;;;;;;7.53;4.07;;;;;;;;;;7389582;19;20006;-72
2022/09/29 02:48:05;;;;;;;6.50;4.00;;;;;;;;;;7394263;19;20002;-72
2022/09/29 02:50:31;;;;;;;8.02;4.05;;;;;;;;;;7395875;19;20392;-72
2022/09/29 02:53:34;;;;;;;8.27;3.88;;;;;;;;;;7393528;19;19995;-72
2022/09/29 02:56:22;;;;;;;8.05;3.63;;;;;;;;;;7393523;19;20058;-73
2022/09/29 02:58:56;;;;;;;9.95;4.30;;;;;;;;;;7389964;19;20074;-71
2022/09/29 03:01:21;;;;;;;7.30;4.15;;;;;;;;;;7393101;19;20010;-72
2022/09/29 03:03:46;;;;;;;6.03;3.42;;;;;;;;;;7393259;19;20006;-71
2022/09/29 03:06:12;;;;;;;8.38;3.88;;;;;;;;;;7393808;19;20018;-70
2022/09/29 03:08:38;;;;;;;8.10;4.25;;;;;;;;;;7390310;19;20066;-73
2022/09/29 03:11:03;;;;;;;10.48;3.80;;;;;;;;;;7393092;19;20015;-73
2022/09/29 03:13:29;;;;;;;7.78;3.78;;;;;;;;;;7390610;19;20567;-72
2022/09/29 03:15:54;;;;;;;7.68;4.15;;;;;;;;;;7392607;19;19999;-73
2022/09/29 03:18:22;;;;;;;7.68;3.70;;;;;;;;;;7390676;19;19994;-72
2022/09/29 03:20:47;;;;;;;7.93;3.95;;;;;;;;;;7390499;19;20078;-73
2022/09/29 03:23:12;;;;;;;9.20;4.20;;;;;;;;;;7391630;19;20663;-72
2022/09/29 03:25:38;;;;;;;8.43;4.28;;;;;;;;;;7393346;19;20070;-71
2022/09/29 03:28:03;;;;;;;9.55;4.30;;;;;;;;;;7391861;19;19999;-72
2022/09/29 03:30:28;;;;;;;5.85;3.50;;;;;;;;;;7393415;19;19991;-71
2022/09/29 03:32:54;;;;;;;8.43;4.15;;;;;;;;;;7392878;19;19994;-72
2022/09/29 03:35:19;;;;;;;13.95;4.47;;;;;;;;;;7393717;19;20029;-71
2022/09/29 03:37:44;;;;;;;8.60;4.45;;;;;;;;;;7394592;19;19999;-72
2022/09/29 03:40:10;;;;;;;7.70;3.95;;;;;;;;;;7390545;19;19995;-71
2022/09/29 03:42:36;;;;;;;8.75;4.40;;;;;;;;;;7392470;19;20614;-72
2022/09/29 03:45:01;;;;;;;8.68;4.30;;;;;;;;;;7392714;19;20353;-72
2022/09/29 03:47:26;;;;;;;11.15;4.13;;;;;;;;;;7392865;19;20022;-72
2022/09/29 03:49:52;;;;;;;7.68;4.25;;;;;;;;;;7390140;19;19995;-72
2022/09/29 03:52:17;;;;;;;7.90;4.45;;;;;;;;;;7392402;19;19998;-72
2022/09/29 03:54:43;;;;;;;8.10;4.32;;;;;;;;;;7392959;19;20452;-71
2022/09/29 03:57:09;;;;;;;8.65;4.55;;;;;;;;;;7390895;19;19994;-70
2022/09/29 03:59:34;;;;;;;7.97;4.25;;;;;;;;;;7390470;19;20015;-72
2022/09/29 04:01:59;;;;;;;9.48;4.25;;;;;;;;;;7394433;19;20019;-72
2022/09/29 04:04:24;;;;;;;7.93;4.55;;;;;;;;;;7391877;19;19995;-72
2022/09/29 04:06:50;;;;;;;8.60;4.53;;;;;;;;;;7395695;19;19999;-72
2022/09/29 04:09:15;;;;;;;9.90;4.20;;;;;;;;;;7390703;19;19994;-71
2022/09/29 04:11:40;;;;;;;9.63;4.55;;;;;;;;;;7395835;19;20437;-72
2022/09/29 04:14:06;;;;;;;7.97;4.10;;;;;;;;;;7398129;19;19990;-72
2022/09/29 04:16:31;;;;;;;10.23;4.18;;;;;;;;;;7394935;19;20006;-70
2022/09/29 04:18:57;;;;;;;8.85;4.63;;;;;;;;;;7393594;19;19995;-72
2022/09/29 04:21:22;;;;;;;10.45;4.22;;;;;;;;;;7394301;19;19998;-73
2022/09/29 04:23:48;;;;;;;9.77;4.40;;;;;;;;;;7391190;19;20344;-71
2022/09/29 04:26:14;;;;;;;8.40;4.30;;;;;;;;;;7392612;19;20019;-69
2022/09/29 04:28:39;;;;;;;8.88;4.30;;;;;;;;;;7393430;19;20003;-72
2022/09/29 04:31:05;;;;;;;8.60;4.65;;;;;;;;;;7391887;19;19991;-72
2022/09/29 04:33:31;;;;;;;9.77;5.05;;;;;;;;;;7392212;19;20003;-71
2022/09/29 04:35:59;;;;;;;9.38;4.38;;;;;;;;;;7395084;19;20010;-72
2022/09/29 04:38:25;;;;;;;10.65;4.70;;;;;;;;;;7390223;19;20012;-71
2022/09/29 04:40:51;;;;;;;7.28;4.20;;;;;;;;;;7394621;19;20497;-71
2022/09/29 04:43:16;;;;;;;7.22;3.95;;;;;;;;;;7394249;19;19998;-71
2022/09/29 04:45:42;;;;;;;11.27;4.90;;;;;;;;;;7392051;19;19995;-72
2022/09/29 04:48:07;;;;;;;14.82;4.82;;;;;;;;;;7390571;19;20113;-73
2022/09/29 04:50:33;;;;;;;11.50;4.20;;;;;;;;;;7387927;19;20016;-71
2022/09/29 04:52:59;;;;;;;11.63;4.43;;;;;;;;;;7391454;19;19995;-72
2022/09/29 04:55:24;;;;;;;9.98;4.82;;;;;;;;;;7390231;19;20500;-72
2022/09/29 04:57:50;;;;;;;7.60;4.07;;;;;;;;;;7389934;19;20038;-73
2022/09/29 05:00:16;;;;;;;7.72;4.15;;;;;;;;;;7385859;19;20023;-71
2022/09/29 05:02:42;;;;;;;9.00;4.55;;;;;;;;;;7389565;19;20667;-72
2022/09/29 05:05:09;;;;;;;8.15;4.18;;;;;;;;;;7389615;19;19998;-73
2022/09/29 05:07:35;;;;;;;12.45;4.63;;;;;;;;;;7385450;19;20011;-71
2022/09/29 05:10:01;;;;;;;7.97;4.32;;;;;;;;;;7385750;19;19994;-73
2022/09/29 05:12:26;;;;;;;6.55;4.07;;;;;;;;;;7392321;19;20088;-71
2022/09/29 05:14:51;;;;;;;8.07;4.53;;;;;;;;;;7388282;19;20079;-73
2022/09/29 05:17:17;;;;;;;10.45;4.53;;;;;;;;;;7392774;19;20013;-70
2022/09/29 05:19:42;;;;;;;8.70;4.53;;;;;;;;;;7392015;19;20005;-73
2022/09/29 05:22:07;;;;;;;10.18;4.43;;;;;;;;;;7391701;19;19998;-70
2022/09/29 05:24:33;;;;;;;8.57;4.63;;;;;;;;;;7393526;19;20099;-72
2022/09/29 05:26:58;;;;;;;8.88;4.60;;;;;;;;;;7391309;19;20009;-71
2022/09/29 05:29:23;;;;;;;8.32;4.80;;;;;;;;;;7390229;19;20003;-71
2022/09/29 05:31:50;;;;;;;8.38;4.28;;;;;;;;;;7391572;19;19995;-71
2022/09/29 05:34:15;;;;;;;8.77;4.07;;;;;;;;;;7393266;19;20026;-72
2022/09/29 05:36:41;;;;;;;10.15;4.78;;;;;;;;;;7392911;19;19999;-71
2022/09/29 05:39:07;;;;;;;8.95;4.10;;;;;;;;;;7389610;19;19995;-73
2022/09/29 05:41:32;;;;;;;6.97;3.80;;;;;;;;;;7386084;19;20002;-72
2022/09/29 05:43:59;;;;;;;14.20;4.53;;;;;;;;;;7387411;19;20357;-71
2022/09/29 05:46:24;;;;;;;6.53;4.00;;;;;;;;;;7393280;19;19997;-72
2022/09/29 05:48:50;;;;;;;9.68;5.10;;;;;;;;;;7392579;19;19998;-72
2022/09/29 05:51:19;;;;;;;11.60;4.72;;;;;;;;;;7391029;19;19998;-72
2022/09/29 05:53:44;;;;;;;8.80;4.82;;;;;;;;;;7389085;19;20674;-72
2022/09/29 05:56:21;;;;;;;10.63;5.40;;;;;;;;;;7388555;19;20009;-72
2022/09/29 05:58:47;;;;;;;8.88;5.18;;;;;;;;;;7391122;19;19999;-72
2022/09/29 06:01:21;;;;;;;9.77;4.43;;;;;;;;;;7390920;19;19997;-72
2022/09/29 06:03:47;;;;;;;8.10;4.55;;;;;;;;;;7389041;19;20034;-73
2022/09/29 06:06:18;;;;;;;8.80;4.30;;;;;;;;;;7390712;19;20708;-72
2022/09/29 06:08:44;;;;;;;12.52;5.25;;;;;;;;;;7389181;19;20032;-77
2022/09/29 06:11:12;;;;;;;9.57;4.88;;;;;;;;;;7389630;19;19999;-77
2022/09/29 06:13:39;;;;;;;17.13;6.70;;;;;;;;;;7387849;19;20062;-73
2022/09/29 06:16:05;;;;;;;15.43;6.60;;;;;;;;;;7390148;19;20013;-72
2022/09/29 06:18:31;;;;;;;19.30;7.18;;;;;;;;;;7389104;19;20041;-73
2022/09/29 06:21:10;;;;;;;20.08;8.30;;;;;;;;;;7388248;19;20003;-72
2022/09/29 06:23:37;;;;;;;19.42;8.35;;;;;;;;;;7389136;19;20062;-72
2022/09/29 06:26:07;;;;;;;17.17;8.68;;;;;;;;;;7387922;19;20003;-72
2022/09/29 06:28:32;;;;;;;18.10;9.27;;;;;;;;;;7390104;19;20083;-71
2022/09/29 06:30:59;;;;;;;20.27;9.55;;;;;;;;;;7388702;19;20517;-72
2022/09/29 06:33:26;;;;;;;20.50;9.05;;;;;;;;;;7387334;19;20076;-72
2022/09/29 06:38:36;;;;;;;18.88;7.70;;;;;;;;;;7390602;19;20111;-72
2022/09/29 06:41:01;;;;;;;19.52;8.38;;;;;;;;;;7389745;19;20761;-73
2022/09/29 06:43:26;;;;;;;21.83;7.97;;;;;;;;;;7388052;19;19994;-72
2022/09/29 06:45:52;;;;;;;19.33;8.68;;;;;;;;;;7388670;19;20074;-73
2022/09/29 06:48:17;;;;;;;17.80;8.13;;;;;;;;;;7389278;19;20014;-74
2022/09/29 06:50:42;;;;;;;16.10;7.57;;;;;;;;;;7389751;19;20002;-73
2022/09/29 06:53:08;;;;;;;14.90;7.40;;;;;;;;;;7385587;19;20002;-73
2022/09/29 06:55:33;;;;;;;16.98;7.28;;;;;;;;;;7388326;19;20345;-72
2022/09/29 06:57:59;;;;;;;16.30;7.10;;;;;;;;;;7387006;19;20002;-72
2022/09/29 07:00:24;;;;;;;17.58;7.20;;;;;;;;;;7387089;19;20369;-72
2022/09/29 07:02:49;;;;;;;18.23;7.50;;;;;;;;;;7389449;19;20019;-73
2022/09/29 07:05:15;;;;;;;14.68;7.00;;;;;;;;;;7386555;19;19994;-73
2022/09/29 07:07:41;;;;;;;16.60;7.78;;;;;;;;;;7387732;19;19995;-72
2022/09/29 07:10:06;;;;;;;14.45;7.68;;;;;;;;;;7386298;19;20070;-72
2022/09/29 07:12:32;;;;;;;14.55;7.25;;;;;;;;;;7389785;19;20007;-73
2022/09/29 07:14:57;;;;;;;19.25;7.68;;;;;;;;;;7387318;19;19998;-73
2022/09/29 07:17:22;;;;;;;21.23;7.88;;;;;;;;;;7389501;19;20217;-72
2022/09/29 07:19:48;;;;;;;14.77;7.72;;;;;;;;;;7386460;19;20463;-71
2022/09/29 07:22:13;;;;;;;12.80;7.28;;;;;;;;;;7388320;19;20006;-72
2022/09/29 07:24:38;;;;;;;20.52;7.65;;;;;;;;;;7389994;19;20333;-72
2022/09/29 07:27:04;;;;;;;17.13;7.25;;;;;;;;;;7386938;19;20003;-72
2022/09/29 07:29:31;;;;;;;18.45;7.90;;;;;;;;;;7386069;19;19994;-72
2022/09/29 07:31:58;;;;;;;13.25;7.35;;;;;;;;;;7391500;19;20085;-72
2022/09/29 07:34:23;;;;;;;12.32;7.20;;;;;;;;;;7396460;19;20005;-72
2022/09/29 07:36:49;;;;;;;17.92;7.72;;;;;;;;;;7397687;19;19998;-71
2022/09/29 07:39:14;;;;;;;15.43;7.63;;;;;;;;;;7392690;19;20567;-73
2022/09/29 07:41:39;;;;;;;13.82;7.63;;;;;;;;;;7394107;19;20066;-72
2022/09/29 07:44:05;;;;;;;13.57;7.63;;;;;;;;;;7395459;19;20010;-71
2022/09/29 07:46:31;;;;;;;36.22;16.90;;;;;;;;;;7396323;19;19999;-72
2022/09/29 07:48:56;;;;;;;20.42;10.02;;;;;;;;;;7391751;19;20070;-72
2022/09/29 07:51:22;;;;;;;12.93;7.82;;;;;;;;;;7393681;19;20002;-72
2022/09/29 07:53:47;;;;;;;17.25;7.85;;;;;;;;;;7394982;19;20446;-71
2022/09/29 07:56:17;;;;;;;16.02;7.38;;;;;;;;;;7395565;19;20019;-73
2022/09/29 07:58:43;;;;;;;13.30;6.93;;;;;;;;;;7386643;19;20027;-72
2022/09/29 08:01:11;;;;;;;17.67;8.40;;;;;;;;;;7388066;19;20011;-72
2022/09/29 08:03:38;;;;;;;19.08;9.13;;;;;;;;;;7392775;19;20003;-73
2022/09/29 08:06:04;;;;;;;17.77;9.25;;;;;;;;;;7394803;19;20006;-73
2022/09/29 08:08:29;;;;;;;16.52;10.45;;;;;;;;;;7392484;19;20341;-73
2022/09/29 08:11:03;;;;;;;21.23;10.38;;;;;;;;;;7395013;19;20002;-73
2022/09/29 08:13:30;;;;;;;19.17;9.35;;;;;;;;;;7393109;19;20006;-73
2022/09/29 08:15:59;;;;;;;18.90;10.18;;;;;;;;;;7393574;19;20043;-72
2022/09/29 08:18:26;;;;;;;19.50;10.35;;;;;;;;;;7394310;19;20449;-73
2022/09/29 08:20:52;;;;;;;25.08;12.07;;;;;;;;;;7394183;19;19999;-72
2022/09/29 08:23:18;;;;;;;22.15;11.48;;;;;;;;;;7392337;19;20010;-72
2022/09/29 08:25:44;;;;;;;19.42;10.93;;;;;;;;;;7391603;19;20002;-71
2022/09/29 08:28:10;;;;;;;24.70;11.90;;;;;;;;;;7398706;19;20005;-72
2022/09/29 08:30:35;;;;;;;28.17;11.25;;;;;;;;;;7385740;19;20037;-72
2022/09/29 08:33:00;;;;;;;19.58;10.80;;;;;;;;;;7394182;19;20599;-72
2022/09/29 08:35:26;;;;;;;22.40;11.00;;;;;;;;;;7393683;19;19999;-72
2022/09/29 08:37:53;;;;;;;19.00;10.18;;;;;;;;;;7396951;19;20003;-72
2022/09/29 08:40:19;;;;;;;21.90;10.40;;;;;;;;;;7392019;19;20005;-72
2022/09/29 08:43:03;;;;;;;17.95;10.40;;;;;;;;;;7394175;19;20380;-72
2022/09/29 08:45:40;;;;;;;19.83;10.50;;;;;;;;;;7391500;19;19999;-72
2022/09/29 08:48:15;;;;;;;19.55;10.23;;;;;;;;;;7391603;19;20098;-74
2022/09/29 08:50:51;;;;;;;19.85;10.23;;;;;;;;;;7390712;19;20003;-71
2022/09/29 08:53:20;;;;;;;22.02;10.35;;;;;;;;;;7390870;19;19998;-72
2022/09/29 08:56:23;;;;;;;24.75;11.77;;;;;;;;;;7391155;19;20006;-72
2022/09/29 08:58:48;;;;;;;20.83;10.60;;;;;;;;;;7382622;19;19998;-72
2022/09/29 09:01:26;;;;;;;20.65;10.30;;;;;;;;;;7386849;19;20011;-72
2022/09/29 09:04:16;;;;;;;16.63;9.50;;;;;;;;;;7392200;19;20002;-72
2022/09/29 09:06:47;;;;;;;17.02;9.88;;;;;;;;;;7392454;19;20002;-73
2022/09/29 09:09:19;;;;;;;;;;;;;;;;;;7388817;19;20002;-73
2022/09/29 09:12:09;;;;;;;18.63;9.43;;;;;;;;;;7390491;19;19930;-73
2022/09/29 09:14:35;;;;;;;21.58;11.98;;;;;;;;;;7392992;19;20015;-73
2022/09/29 09:17:12;;;;;;;21.38;11.02;;;;;;;;;;7390765;19;20460;-74
2022/09/29 09:19:45;;;;;;;20.08;11.10;;;;;;;;;;7387021;19;20093;-71
2022/09/29 09:22:20;;;;;;;19.77;11.32;;;;;;;;;;7389437;19;20500;-72
2022/09/29 09:25:09;;;;;;;22.02;11.52;;;;;;;;;;7393528;19;20396;-70
2022/09/29 09:27:41;;;;;;;21.73;11.75;;;;;;;;;;7390120;19;20510;-70
2022/09/29 09:30:14;;;;;;;21.52;11.02;;;;;;;;;;7390582;19;20009;-72
2022/09/29 09:32:47;;;;;;;24.48;12.15;;;;;;;;;;7391191;19;20063;-71
2022/09/29 09:35:27;;;;;;;21.45;11.13;;;;;;;;;;7389670;19;20378;-69
2022/09/29 09:37:56;;;;;;;19.83;9.75;;;;;;;;;;7389942;19;20006;-71
2022/09/29 09:40:28;;;;;;;19.95;10.60;;;;;;;;;;7386713;19;20002;-71
2022/09/29 09:43:12;;;;;;;19.35;9.68;;;;;;;;;;7389241;19;20003;-71
2022/09/29 09:45:54;;;;;;;18.98;10.55;;;;;;;;;;7390686;19;20084;-69
2022/09/29 09:48:24;;;;;;;21.90;12.27;;;;;;;;;;7391180;19;20497;-71
2022/09/29 09:50:50;;;;;;;19.52;10.77;;;;;;;;;;7390885;19;20354;-71
2022/09/29 09:53:33;;;;;;;19.42;10.88;;;;;;;;;;7387016;19;19998;-71
2022/09/29 09:56:30;;;;;;;17.55;9.73;;;;;;;;;;7387558;19;20002;-69
2022/09/29 09:59:16;;;;;;;20.75;10.05;;;;;;;;;;7386876;19;19994;-70
2022/09/29 10:01:42;;;;;;;15.68;8.80;;;;;;;;;;7386885;19;20491;-69
2022/09/29 10:04:11;;;;;;;15.63;9.77;;;;;;;;;;7389147;19;19995;-70
2022/09/29 10:06:36;;;;;;;16.45;9.73;;;;;;;;;;7343325;19;19998;-69
2022/09/29 10:09:02;;;;;;;16.40;8.40;;;;;;;;;;7388424;19;19995;-71
2022/09/29 10:11:30;;;;;;;16.77;8.80;;;;;;;;;;7387555;19;19991;-70
2022/09/29 10:14:18;;;;;;;16.02;8.90;;;;;;;;;;7389575;19;20492;-70
2022/09/29 10:16:51;;;;;;;17.60;9.15;;;;;;;;;;7389750;19;20002;-72
2022/09/29 10:19:22;;;;;;;13.77;8.35;;;;;;;;;;7386862;19;20054;-69
2022/09/29 10:21:48;;;;;;;14.65;8.32;;;;;;;;;;7387979;19;20472;-71
2022/09/29 10:24:28;;;;;;;11.55;7.32;;;;;;;;;;7389624;19;20022;-69
2022/09/29 10:26:57;;;;;;;11.88;7.40;;;;;;;;;;7386367;19;20009;-71
2022/09/29 10:29:25;;;;;;;14.18;7.40;;;;;;;;;;7386343;19;20041;-70
2022/09/29 10:32:05;;;;;;;13.13;7.40;;;;;;;;;;7386223;19;20003;-71
2022/09/29 10:34:32;;;;;;;14.20;7.88;;;;;;;;;;7389355;19;20007;-70
2022/09/29 10:37:04;;;;;;;13.38;7.13;;;;;;;;;;7386733;19;20476;-70
2022/09/29 10:39:44;;;;;;;10.63;6.13;;;;;;;;;;7386761;19;20479;-68
2022/09/29 10:42:28;;;;;;;16.95;9.07;;;;;;;;;;7388391;19;19998;-71
2022/09/29 10:45:16;;;;;;;10.02;6.40;;;;;;;;;;7386364;19;20012;-70
2022/09/29 10:47:56;;;;;;;10.70;6.22;;;;;;;;;;7387840;19;20005;-70
2022/09/29 10:50:24;;;;;;;10.82;6.28;;;;;;;;;;7387470;19;20026;-69
2022/09/29 10:52:58;;;;;;;10.25;6.93;;;;;;;;;;7389378;19;20095;-70
2022/09/29 10:55:29;;;;;;;11.80;5.95;;;;;;;;;;7385201;19;20011;-69
2022/09/29 10:57:57;;;;;;;9.77;5.80;;;;;;;;;;7387095;19;20003;-68
2022/09/29 11:00:36;;;;;;;8.70;5.90;;;;;;;;;;7386559;19;20010;-70
2022/09/29 11:03:25;;;;;;;9.48;5.47;;;;;;;;;;7385395;19;20002;-68
2022/09/29 11:05:54;;;;;;;10.55;5.97;;;;;;;;;;7393320;19;20002;-69
2022/09/29 11:08:24;;;;;;;8.20;5.57;;;;;;;;;;7396591;19;19995;-69
2022/09/29 11:11:18;;;;;;;13.07;5.47;;;;;;;;;;7394931;19;20011;-69
2022/09/29 11:13:44;;;;;;;9.40;5.80;;;;;;;;;;7396792;19;20003;-69
2022/09/29 11:16:17;;;;;;;7.25;5.10;;;;;;;;;;7395966;19;20035;-68
2022/09/29 11:18:44;;;;;;;9.00;5.75;;;;;;;;;;7394815;19;20031;-70
2022/09/29 11:21:10;;;;;;;10.23;5.68;;;;;;;;;;7394299;19;20010;-68
2022/09/29 11:23:57;;;;;;;11.32;5.78;;;;;;;;;;7394989;19;20005;-70
2022/09/29 11:26:32;;;;;;;10.18;5.63;;;;;;;;;;7396978;19;20424;-70
2022/09/29 11:29:18;;;;;;;10.15;5.35;;;;;;;;;;7391873;19;20003;-70
2022/09/29 11:31:56;;;;;;;9.82;5.38;;;;;;;;;;7392197;19;20006;-70
2022/09/29 11:34:42;;;;;;;9.75;5.65;;;;;;;;;;7396629;19;20247;-70
2022/09/29 11:37:26;;;;;;;9.15;5.57;;;;;;;;;;7394156;19;20671;-70
2022/09/29 11:40:24;;;;;;;10.23;5.10;;;;;;;;;;7393095;19;20010;-70
2022/09/29 11:43:23;;;;;;;10.68;5.85;;;;;;;;;;7390506;19;20002;-70
2022/09/29 11:46:16;;;;;;;10.15;6.10;;;;;;;;;;7393705;19;20099;-70
2022/09/29 11:49:09;;;;;;;10.73;5.90;;;;;;;;;;7393854;19;20014;-70
2022/09/29 11:51:54;;;;;;;11.73;5.97;;;;;;;;;;7391561;19;20002;-71
2022/09/29 11:54:40;;;;;;;9.63;5.95;;;;;;;;;;7393075;19;20110;-70
2022/09/29 11:57:29;;;;;;;10.27;6.03;;;;;;;;;;7391473;19;20002;-70
2022/09/29 12:00:09;;;;;;;10.85;5.90;;;;;;;;;;7386395;19;20010;-71
2022/09/29 12:02:49;;;;;;;12.18;6.07;;;;;;;;;;7392193;19;20474;-71
2022/09/29 12:05:27;;;;;;;11.55;6.25;;;;;;;;;;7391527;19;20007;-70
2022/09/29 12:07:56;;;;;;;10.88;6.18;;;;;;;;;;7393872;19;20350;-70
2022/09/29 12:10:32;;;;;;;10.55;5.75;;;;;;;;;;7391176;19;20005;-69
2022/09/29 12:13:26;;;;;;;11.38;6.18;;;;;;;;;;7393382;19;19998;-70
2022/09/29 12:16:01;;;;;;;11.10;5.70;;;;;;;;;;7393436;19;20119;-70
2022/09/29 12:18:35;;;;;;;8.95;5.15;;;;;;;;;;7392717;19;20015;-70
2022/09/29 12:21:02;;;;;;;10.27;5.68;;;;;;;;;;7391460;19;20536;-71
2022/09/29 12:23:30;;;;;;;11.43;5.82;;;;;;;;;;7392274;19;20010;-70
2022/09/29 12:26:03;;;;;;;13.75;5.75;;;;;;;;;;7391847;19;20013;-70
2022/09/29 12:29:04;;;;;;;11.13;5.57;;;;;;;;;;7304063;19;20068;-70
2022/09/29 12:31:42;;;;;;;9.80;5.80;;;;;;;;;;7386610;19;20006;-70
2022/09/29 12:34:39;;;;;;;8.80;5.43;;;;;;;;;;7393217;19;20027;-70
2022/09/29 12:37:22;;;;;;;9.93;5.47;;;;;;;;;;7379958;19;20004;-71
2022/09/29 12:40:02;;;;;;;8.60;5.53;;;;;;;;;;7391557;19;20079;-69
2022/09/29 12:42:42;;;;;;;8.65;5.57;;;;;;;;;;7392754;19;20452;-68
2022/09/29 12:45:29;;;;;;;12.43;5.97;;;;;;;;;;7390824;19;19998;-70
2022/09/29 12:48:16;;;;;;;9.63;5.43;;;;;;;;;;7392194;19;20345;-70
2022/09/29 12:50:49;;;;;;;10.57;5.53;;;;;;;;;;7388854;19;20618;-70
2022/09/29 12:53:30;;;;;;;8.82;5.53;;;;;;;;;;7391127;19;20472;-69
2022/09/29 12:56:24;;;;;;;13.13;5.38;;;;;;;;;;7392004;19;20020;-70
2022/09/29 12:59:01;;;;;;;9.25;5.45;;;;;;;;;;7390651;19;20331;-70
2022/09/29 13:01:32;;;;;;;11.10;5.05;;;;;;;;;;7390161;19;20066;-70
2022/09/29 13:04:10;;;;;;;;;;;;;;;;;;7392288;19;20041;-70
2022/09/29 13:06:55;;;;;;;10.57;5.25;;;;;;;;;;7392200;19;19923;-69
2022/09/29 13:09:58;;;;;;;12.27;5.78;;;;;;;;;;7387924;19;20039;-71
2022/09/29 13:12:45;;;;;;;9.02;5.80;;;;;;;;;;7389583;19;20555;-68
2022/09/29 13:15:23;;;;;;;11.18;5.75;;;;;;;;;;7389604;19;20075;-69
2022/09/29 13:18:09;;;;;;;11.63;5.45;;;;;;;;;;7391126;19;20002;-68
2022/09/29 13:20:59;;;;;;;10.35;5.13;;;;;;;;;;7389995;19;20013;-68
2022/09/29 13:23:31;;;;;;;9.68;4.97;;;;;;;;;;7389639;19;20010;-69
2022/09/29 13:26:25;;;;;;;10.02;5.47;;;;;;;;;;7390789;19;20002;-69
2022/09/29 13:28:55;;;;;;;10.38;5.13;;;;;;;;;;7385066;19;20009;-69
2022/09/29 13:31:26;;;;;;;10.20;5.40;;;;;;;;;;7387368;19;20547;-69
2022/09/29 13:33:52;;;;;;;;;;;;;;;;;;7391478;19;20111;-68
2022/09/29 13:36:27;;;;;;;9.70;4.68;;;;;;;;;;7391490;19;19922;-68
2022/09/29 13:38:56;;;;;;;9.50;4.88;;;;;;;;;;7386552;19;20003;-69
2022/09/29 13:41:22;;;;;;;10.70;4.88;;;;;;;;;;7388880;19;20031;-69
2022/09/29 13:43:50;;;;;;;7.73;4.30;;;;;;;;;;7390200;19;19998;-69
2022/09/29 13:46:30;;;;;;;11.55;4.75;;;;;;;;;;7390859;19;20764;-69
2022/09/29 13:49:08;;;;;;;14.18;4.72;;;;;;;;;;7390128;19;20011;-67
2022/09/29 13:51:51;;;;;;;10.02;4.68;;;;;;;;;;7388539;19;19999;-69
2022/09/29 13:54:39;;;;;;;9.10;4.55;;;;;;;;;;7390861;19;20077;-69
2022/09/29 13:57:14;;;;;;;9.35;4.25;;;;;;;;;;7389053;19;20058;-69
2022/09/29 14:00:03;;;;;;;10.43;4.63;;;;;;;;;;7388760;19;19999;-68
2022/09/29 14:03:01;;;;;;;9.02;4.53;;;;;;;;;;7390636;19;19999;-68
2022/09/29 14:05:26;;;;;;;10.82;3.83;;;;;;;;;;7387945;19;20297;-69
2022/09/29 14:07:54;;;;;;;11.32;4.28;;;;;;;;;;7389435;19;20074;-69
2022/09/29 14:10:26;;;;;;;7.15;4.05;;;;;;;;;;7387474;19;20009;-69
2022/09/29 14:13:06;;;;;;;11.02;4.30;;;;;;;;;;7386509;19;19999;-69
2022/09/29 14:15:42;;;;;;;10.18;3.55;;;;;;;;;;7387198;19;19995;-68
2022/09/29 14:18:27;;;;;;;9.20;3.97;;;;;;;;;;7389590;19;20027;-68
2022/09/29 14:21:02;;;;;;;6.43;3.90;;;;;;;;;;7385127;19;20023;-68
2022/09/29 14:23:43;;;;;;;6.43;3.13;;;;;;;;;;7388022;19;20028;-68
2022/09/29 14:26:47;;;;;;;8.10;3.70;;;;;;;;;;7389339;19;20010;-69
2022/09/29 14:29:27;;;;;;;10.43;3.63;;;;;;;;;;7385093;19;20019;-69
2022/09/29 14:31:56;;;;;;;6.65;3.47;;;;;;;;;;7386929;19;20002;-68
2022/09/29 14:34:25;;;;;;;7.65;3.30;;;;;;;;;;7387771;19;20467;-69
2022/09/29 14:36:52;;;;;;;5.57;2.88;;;;;;;;;;7387872;19;19998;-68
2022/09/29 14:39:19;;;;;;;8.15;2.88;;;;;;;;;;7386710;19;20007;-68
2022/09/29 14:41:47;;;;;;;7.80;3.30;;;;;;;;;;7388229;19;20017;-68
2022/09/29 14:44:21;;;;;;;5.03;2.55;;;;;;;;;;7390447;19;20009;-68
2022/09/29 14:52:49;;;;;;;6.05;2.45;;;;;;;;;;7387368;19;20490;-68
2022/09/29 14:55:19;;;;;;;3.78;2.15;;;;;;;;;;7386782;19;20078;-68
2022/09/29 14:58:09;;;;;;;5.78;2.20;;;;;;;;;;7387680;19;20528;-68
2022/09/29 15:01:19;;;;;;;5.37;2.30;;;;;;;;;;7384716;19;20357;-68
2022/09/29 15:03:47;;;;;;;6.25;2.63;;;;;;;;;;7387336;19;19999;-67
2022/09/29 15:06:15;;;;;;;5.90;2.50;;;;;;;;;;7388112;19;20117;-68
2022/09/29 15:08:43;;;;;;;5.90;2.80;;;;;;;;;;7389197;19;20010;-69
2022/09/29 15:11:27;;;;;;;7.18;2.83;;;;;;;;;;7385433;19;20539;-68
2022/09/29 15:13:54;;;;;;;5.70;2.55;;;;;;;;;;7385166;19;20003;-67
2022/09/29 15:16:34;;;;;;;7.07;2.63;;;;;;;;;;7386628;19;20413;-69